createdAt,value
2022-08-05T00:02:07.717Z,46.13
2022-08-05T00:04:38.017Z,46.02
2022-08-05T00:07:26.804Z,46.26
2022-08-05T00:09:53.604Z,46.75
2022-08-05T00:12:21.546Z,46.06
2022-08-05T00:14:48.654Z,46.75
2022-08-05T00:17:19.665Z,46.02
2022-08-05T00:20:01.731Z,46.34
2022-08-05T00:22:28.904Z,46.88
2022-08-05T00:24:55.469Z,46.20
2022-08-05T00:27:22.100Z,47.18
2022-08-05T00:30:03.721Z,46.42
2022-08-05T00:32:30.345Z,46.46
2022-08-05T00:35:06.076Z,46.77
2022-08-05T00:37:51.115Z,46.49
2022-08-05T00:40:26.780Z,46.92
2022-08-05T00:42:54.454Z,46.75
2022-08-05T00:45:28.276Z,47.12
2022-08-05T00:48:27.553Z,47.01
2022-08-05T00:50:58.305Z,47.03
2022-08-05T00:54:00.001Z,46.73
2022-08-05T00:56:11.604Z,47.19
2022-08-05T00:58:38.921Z,46.76
2022-08-05T01:01:10.902Z,47.20
2022-08-05T01:03:41.022Z,46.99
2022-08-05T01:06:11.387Z,47.14
2022-08-05T01:08:44.125Z,47.38
2022-08-05T01:11:21.920Z,47.36
2022-08-05T01:14:00.125Z,47.30
2022-08-05T01:16:50.813Z,47.17
2022-08-05T01:19:22.279Z,47.46
2022-08-05T01:22:18.695Z,47.58
2022-08-05T01:24:50.372Z,47.69
2022-08-05T01:27:55.510Z,48.67
2022-08-05T01:30:33.712Z,48.42
2022-08-05T01:33:03.174Z,48.95
2022-08-05T01:35:51.194Z,48.79
2022-08-05T01:38:27.399Z,49.17
2022-08-05T01:40:58.947Z,48.93
2022-08-05T01:43:27.524Z,48.70
2022-08-05T01:45:56.729Z,49.65
2022-08-05T01:48:26.098Z,48.90
2022-08-05T01:50:55.325Z,49.13
2022-08-05T01:53:57.448Z,49.70
2022-08-05T01:56:11.291Z,49.37
2022-08-05T01:58:44.821Z,49.35
2022-08-05T02:01:13.505Z,48.95
2022-08-05T02:03:44.300Z,49.20
2022-08-05T02:06:24.031Z,49.56
2022-08-05T02:08:59.269Z,48.73
2022-08-05T02:11:33.494Z,49.58
2022-08-05T02:14:04.827Z,48.77
2022-08-05T02:16:34.347Z,49.22
2022-08-05T02:19:50.057Z,48.74
2022-08-05T02:22:43.685Z,49.47
2022-08-05T02:25:23.041Z,48.77
2022-08-05T02:27:58.516Z,49.21
2022-08-05T02:30:30.115Z,48.74
2022-08-05T02:32:58.390Z,49.01
2022-08-05T02:35:28.067Z,48.42
2022-08-05T02:37:55.709Z,49.01
2022-08-05T02:40:26.129Z,49.28
2022-08-05T02:42:55.061Z,48.99
2022-08-05T02:45:24.078Z,49.76
2022-08-05T02:48:06.811Z,49.63
2022-08-05T02:50:44.113Z,49.47
2022-08-05T02:53:18.955Z,49.20
2022-08-05T02:55:55.247Z,49.53
2022-08-05T02:58:27.427Z,49.00
2022-08-05T03:00:56.268Z,49.09
2022-08-05T03:03:23.664Z,48.80
2022-08-05T03:06:55.502Z,49.21
2022-08-05T03:08:42.455Z,49.53
2022-08-05T03:11:54.487Z,49.63
2022-08-05T03:14:13.555Z,49.47
2022-08-05T03:16:40.536Z,49.74
2022-08-05T03:19:17.058Z,50.19
2022-08-05T03:21:53.789Z,50.16
2022-08-05T03:24:29.657Z,50.38
2022-08-05T03:26:57.134Z,50.07
2022-08-05T03:29:24.273Z,50.63
2022-08-05T03:32:11.515Z,49.92
2022-08-05T03:34:38.625Z,50.42
2022-08-05T03:37:06.570Z,50.03
2022-08-05T03:39:38.118Z,50.25
2022-08-05T03:42:13.863Z,49.98
2022-08-05T03:44:42.680Z,50.07
2022-08-05T03:47:09.293Z,49.96
2022-08-05T03:49:52.166Z,49.77
2022-08-05T03:52:37.118Z,49.65
2022-08-05T03:56:09.531Z,49.56
2022-08-05T03:58:05.710Z,49.58
2022-08-05T04:00:32.631Z,49.30
2022-08-05T04:03:02.819Z,49.46
2022-08-05T04:05:34.714Z,49.30
2022-08-05T04:08:14.931Z,49.48
2022-08-05T04:10:54.863Z,49.91
2022-08-05T04:13:22.003Z,49.15
2022-08-05T04:16:03.073Z,49.58
2022-08-05T04:18:32.202Z,49.23
2022-08-05T04:21:03.963Z,49.65
2022-08-05T04:24:00.198Z,49.63
2022-08-05T04:26:17.893Z,49.36
2022-08-05T04:28:51.101Z,49.14
2022-08-05T04:31:19.226Z,49.74
2022-08-05T04:34:19.200Z,49.22
2022-08-05T04:36:45.558Z,49.25
2022-08-05T04:39:17.198Z,49.56
2022-08-05T04:41:45.728Z,49.79
2022-08-05T04:44:12.858Z,49.56
2022-08-05T04:46:39.770Z,50.07
2022-08-05T04:49:12.315Z,50.22
2022-08-05T04:51:42.682Z,50.25
2022-08-05T04:54:10.125Z,50.36
2022-08-05T04:56:38.729Z,50.01
2022-08-05T04:59:22.273Z,50.02
2022-08-05T05:02:07.671Z,50.64
2022-08-05T05:04:43.898Z,50.62
2022-08-05T05:07:15.935Z,50.38
2022-08-05T05:09:44.446Z,50.33
2022-08-05T05:12:11.601Z,50.26
2022-08-05T05:14:38.401Z,50.11
2022-08-05T05:17:22.900Z,50.90
2022-08-05T05:19:53.297Z,51.38
2022-08-05T05:22:23.426Z,51.21
2022-08-05T05:24:57.109Z,51.46
2022-08-05T05:27:45.090Z,50.99
2022-08-05T05:30:29.751Z,50.84
2022-08-05T05:33:03.530Z,51.57
2022-08-05T05:35:42.704Z,51.64
2022-08-05T05:38:13.349Z,52.17
2022-08-05T05:40:48.030Z,51.93
2022-08-05T05:43:57.130Z,52.32
2022-08-05T05:46:17.564Z,52.78
2022-08-05T05:48:48.186Z,52.90
2022-08-05T05:51:22.800Z,52.89
2022-08-05T05:53:57.961Z,53.31
2022-08-05T05:56:32.964Z,53.33
2022-08-05T05:59:06.379Z,53.17
2022-08-05T06:01:39.714Z,53.18
2022-08-05T06:04:12.658Z,53.15
2022-08-05T06:06:47.639Z,52.43
2022-08-05T06:09:17.104Z,52.25
2022-08-05T06:12:01.321Z,51.86
2022-08-05T06:14:29.976Z,51.91
2022-08-05T06:16:57.812Z,51.54
2022-08-05T06:19:32.920Z,51.16
2022-08-05T06:22:06.428Z,51.59
2022-08-05T06:24:36.487Z,51.51
2022-08-05T06:27:04.459Z,51.14
2022-08-05T06:29:46.480Z,51.49
2022-08-05T06:32:25.377Z,51.22
2022-08-05T06:34:56.428Z,51.75
2022-08-05T06:37:57.055Z,51.80
2022-08-05T06:40:12.354Z,51.75
2022-08-05T06:42:40.579Z,51.28
2022-08-05T06:45:09.025Z,50.88
2022-08-05T06:48:36.566Z,51.34
2022-08-05T06:50:23.537Z,51.23
2022-08-05T06:53:03.552Z,51.44
2022-08-05T06:55:37.117Z,51.80
2022-08-05T06:58:20.024Z,52.17
2022-08-05T07:00:51.054Z,52.41
2022-08-05T07:03:18.305Z,51.90
2022-08-05T07:05:46.194Z,52.25
2022-08-05T07:08:13.298Z,52.68
2022-08-05T07:10:52.492Z,52.85
2022-08-05T07:13:59.879Z,52.99
2022-08-05T07:17:58.332Z,52.39
2022-08-05T07:22:28.389Z,52.51
2022-08-05T07:24:57.923Z,52.07
2022-08-05T07:27:27.531Z,52.65
2022-08-05T07:30:28.228Z,52.87
2022-08-05T07:32:57.442Z,53.29
2022-08-05T07:36:02.655Z,53.18
2022-08-05T07:38:12.441Z,53.20
2022-08-05T07:40:59.107Z,53.80
2022-08-05T07:43:28.214Z,53.66
2022-08-05T07:45:57.201Z,53.59
2022-08-05T07:49:00.894Z,53.37
2022-08-05T07:51:23.873Z,53.78
2022-08-05T07:53:58.865Z,54.05
2022-08-05T07:57:01.270Z,54.13
2022-08-05T07:59:15.285Z,53.31
2022-08-05T08:01:52.112Z,53.78
2022-08-05T08:04:37.924Z,53.92
2022-08-05T08:07:07.471Z,53.29
2022-08-05T08:09:34.985Z,53.66
2022-08-05T08:12:11.233Z,53.75
2022-08-05T08:14:46.589Z,54.25
2022-08-05T08:17:16.038Z,53.95
2022-08-05T08:20:21.750Z,53.80
2022-08-05T08:22:30.745Z,53.82
2022-08-05T08:25:03.385Z,53.22
2022-08-05T08:27:40.131Z,53.68
2022-08-05T08:30:30.008Z,54.08
2022-08-05T08:33:02.627Z,53.24
2022-08-05T08:35:41.078Z,54.00
2022-08-05T08:38:16.253Z,53.75
2022-08-05T08:40:50.491Z,53.74
2022-08-05T08:44:54.757Z,53.64
2022-08-05T08:46:06.683Z,53.75
2022-08-05T08:48:42.697Z,53.94
2022-08-05T08:52:03.596Z,53.75
2022-08-05T08:54:11.350Z,53.54
2022-08-05T08:56:47.812Z,53.84
2022-08-05T08:59:19.642Z,53.30
2022-08-05T09:01:57.383Z,53.04
2022-08-05T09:04:30.745Z,52.88
2022-08-05T09:06:58.536Z,53.09
2022-08-05T09:09:34.768Z,53.00
2022-08-05T09:12:15.311Z,53.61
2022-08-05T09:14:58.581Z,53.24
2022-08-05T09:17:42.347Z,54.00
2022-08-05T09:20:11.125Z,53.21
2022-08-05T09:23:05.332Z,53.70
2022-08-05T09:26:02.077Z,54.04
2022-08-05T09:28:31.503Z,53.77
2022-08-05T09:32:38.656Z,53.46
2022-08-05T09:34:05.665Z,53.38
2022-08-05T09:37:01.410Z,54.34
2022-08-05T09:39:41.200Z,53.77
2022-08-05T09:42:24.076Z,53.68
2022-08-05T09:44:56.476Z,53.59
2022-08-05T09:47:34.937Z,53.89
2022-08-05T09:50:13.462Z,53.73
2022-08-05T09:52:45.404Z,53.52
2022-08-05T09:55:57.086Z,53.45
2022-08-05T09:57:59.775Z,52.77
2022-08-05T10:00:30.582Z,52.77
2022-08-05T10:02:57.948Z,53.48
2022-08-05T10:05:27.940Z,53.49
2022-08-05T10:08:36.963Z,52.43
2022-08-05T10:10:50.224Z,53.29
2022-08-05T10:13:31.619Z,52.45
2022-08-05T10:16:37.735Z,52.44
2022-08-05T10:19:09.231Z,53.25
2022-08-05T10:21:40.146Z,52.93
2022-08-05T10:24:13.461Z,53.27
2022-08-05T10:26:49.045Z,53.09
2022-08-05T10:29:23.882Z,52.90
2022-08-05T10:32:53.998Z,53.16
2022-08-05T10:34:55.379Z,53.31
2022-08-05T10:37:22.363Z,52.56
2022-08-05T10:39:59.402Z,52.64
2022-08-05T10:42:36.695Z,53.10
2022-08-05T10:45:21.136Z,52.59
2022-08-05T10:48:29.211Z,52.92
2022-08-05T10:51:01.765Z,52.82
2022-08-05T10:53:45.201Z,52.84
2022-08-05T10:56:21.183Z,52.60
2022-08-05T10:58:55.002Z,51.91
2022-08-05T11:01:54.928Z,52.87
2022-08-05T11:04:26.353Z,52.22
2022-08-05T11:07:00.558Z,52.54
2022-08-05T11:09:46.158Z,52.31
2022-08-05T11:12:37.191Z,53.01
2022-08-05T11:15:19.069Z,53.07
2022-08-05T11:17:59.518Z,52.29
2022-08-05T11:20:51.138Z,53.39
2022-08-05T11:24:03.784Z,52.63
2022-08-05T11:26:28.031Z,52.99
2022-08-05T11:29:06.652Z,52.65
2022-08-05T11:31:58.166Z,53.47
2022-08-05T11:34:50.919Z,52.58
2022-08-05T11:38:37.167Z,53.16
2022-08-05T11:41:34.276Z,53.30
2022-08-05T11:44:08.339Z,53.48
2022-08-05T11:47:09.296Z,53.24
2022-08-05T11:49:37.149Z,53.33
2022-08-05T11:52:11.214Z,54.32
2022-08-05T11:54:40.703Z,55.87
2022-08-05T11:57:25.352Z,58.60
2022-08-05T11:59:53.064Z,59.66
2022-08-05T12:02:30.935Z,58.42
2022-08-05T12:05:01.283Z,59.54
2022-08-05T12:08:03.703Z,59.27
2022-08-05T12:10:24.887Z,57.88
2022-08-05T12:13:16.007Z,58.71
2022-08-05T12:15:49.787Z,59.52
2022-08-05T12:18:19.116Z,57.83
2022-08-05T12:20:47.422Z,56.26
2022-08-05T12:23:14.448Z,58.54
2022-08-05T12:25:56.883Z,57.74
2022-08-05T12:28:35.098Z,57.32
2022-08-05T12:31:04.103Z,58.68
2022-08-05T12:33:36.273Z,60.37
2022-08-05T12:36:08.026Z,60.94
2022-08-05T12:38:40.304Z,61.30
2022-08-05T12:41:17.103Z,60.88
2022-08-05T12:43:50.514Z,60.25
2022-08-05T12:46:28.777Z,59.31
2022-08-05T12:48:59.113Z,61.16
2022-08-05T12:52:12.659Z,60.96
2022-08-05T12:54:31.183Z,60.41
2022-08-05T12:56:58.479Z,60.15
2022-08-05T13:00:08.946Z,60.61
2022-08-05T13:02:21.882Z,59.41
2022-08-05T13:04:58.748Z,58.22
2022-08-05T13:07:57.743Z,58.39
2022-08-05T13:10:14.923Z,58.80
2022-08-05T13:12:51.200Z,59.11
2022-08-05T13:15:41.749Z,59.38
2022-08-05T13:18:20.527Z,58.61
2022-08-05T13:20:49.423Z,58.53
2022-08-05T13:23:18.025Z,58.63
2022-08-05T13:25:52.452Z,58.36
2022-08-05T13:28:26.941Z,59.14
2022-08-05T13:30:53.731Z,58.75
2022-08-05T13:34:24.007Z,59.11
2022-08-05T13:36:09.299Z,58.35
2022-08-05T13:38:38.561Z,58.01
2022-08-05T13:41:08.888Z,58.51
2022-08-05T13:43:45.266Z,59.25
2022-08-05T13:46:43.943Z,58.63
2022-08-05T13:49:11.974Z,58.18
2022-08-05T13:51:41.031Z,58.23
2022-08-05T13:54:13.168Z,58.10
2022-08-05T13:56:45.128Z,57.86
2022-08-05T13:59:21.325Z,58.44
2022-08-05T14:01:57.651Z,58.04
2022-08-05T14:04:50.784Z,58.09
2022-08-05T14:07:26.380Z,57.39
2022-08-05T14:10:28.971Z,58.03
2022-08-05T14:12:57.743Z,57.64
2022-08-05T14:16:08.477Z,58.17
2022-08-05T14:18:17.618Z,58.20
2022-08-05T14:20:48.242Z,58.32
2022-08-05T14:23:19.113Z,58.07
2022-08-05T14:25:58.255Z,57.83
2022-08-05T14:28:29.588Z,57.10
2022-08-05T14:30:57.881Z,56.52
2022-08-05T14:33:24.630Z,56.27
2022-08-05T14:35:53.971Z,56.19
2022-08-05T14:38:31.735Z,56.05
2022-08-05T14:41:00.816Z,57.44
2022-08-05T14:44:00.095Z,56.45
2022-08-05T14:46:14.264Z,55.82
2022-08-05T14:48:41.630Z,55.83
2022-08-05T14:51:09.403Z,55.64
2022-08-05T14:53:44.414Z,55.34
2022-08-05T14:56:11.901Z,55.30
2022-08-05T14:58:47.906Z,54.99
2022-08-05T15:01:47.089Z,54.88
2022-08-05T15:04:11.470Z,54.62
2022-08-05T15:06:40.521Z,54.63
2022-08-05T15:09:07.289Z,55.28
2022-08-05T15:11:51.829Z,55.04
2022-08-05T15:14:34.996Z,54.30
2022-08-05T15:17:44.299Z,55.04
2022-08-05T15:19:55.208Z,54.50
2022-08-05T15:22:22.066Z,55.16
2022-08-05T15:24:54.330Z,54.64
2022-08-05T15:27:20.945Z,55.33
2022-08-05T15:29:47.581Z,54.92
2022-08-05T15:32:16.409Z,54.85
2022-08-05T15:34:43.380Z,55.08
2022-08-05T15:37:14.789Z,55.11
2022-08-05T15:40:59.061Z,54.56
2022-08-05T15:42:55.840Z,54.75
2022-08-05T15:45:16.857Z,54.69
2022-08-05T15:47:45.709Z,54.50
2022-08-05T15:50:15.278Z,54.91
2022-08-05T15:52:53.556Z,54.84
2022-08-05T15:55:25.003Z,54.75
2022-08-05T15:58:08.890Z,55.20
2022-08-05T16:00:50.244Z,55.01
2022-08-05T16:03:22.546Z,54.97
2022-08-05T16:05:52.655Z,55.09
2022-08-05T16:08:22.467Z,54.78
2022-08-05T16:10:50.809Z,55.19
2022-08-05T16:13:19.255Z,54.77
2022-08-05T16:15:51.867Z,55.09
2022-08-05T16:18:18.875Z,55.21
2022-08-05T16:20:46.417Z,55.24
2022-08-05T16:23:13.123Z,55.29
2022-08-05T16:25:40.192Z,54.85
2022-08-05T16:28:10.234Z,55.26
2022-08-05T16:30:37.383Z,54.90
2022-08-05T16:33:04.422Z,54.77
2022-08-05T16:35:33.462Z,55.05
2022-08-05T16:38:03.007Z,54.91
2022-08-05T16:40:52.088Z,55.02
2022-08-05T16:43:27.707Z,54.85
2022-08-05T16:46:06.234Z,55.69
2022-08-05T16:48:38.586Z,55.46
2022-08-05T16:51:09.692Z,55.00
2022-08-05T16:54:06.330Z,56.10
2022-08-05T16:56:27.304Z,55.32
2022-08-05T16:58:54.231Z,56.10
2022-08-05T17:01:21.140Z,56.87
2022-08-05T17:03:51.840Z,55.92
2022-08-05T17:06:19.192Z,56.17
2022-08-05T17:08:53.165Z,56.47
2022-08-05T17:11:23.702Z,56.97
2022-08-05T17:13:54.824Z,57.76
2022-08-05T17:16:33.339Z,57.77
2022-08-05T17:19:02.581Z,57.62
2022-08-05T17:21:35.453Z,57.80
2022-08-05T17:24:14.294Z,58.28
2022-08-05T17:26:51.374Z,58.73
2022-08-05T17:29:22.744Z,59.10
2022-08-05T17:31:59.667Z,58.06
2022-08-05T17:34:29.725Z,58.60
2022-08-05T17:36:58.751Z,59.03
2022-08-05T17:39:29.899Z,59.14
2022-08-05T17:42:18.567Z,58.66
2022-08-05T17:44:50.545Z,59.32
2022-08-05T17:47:22.197Z,59.71
2022-08-05T17:49:51.961Z,59.52
2022-08-05T17:52:27.822Z,59.11
2022-08-05T17:54:55.039Z,58.63
2022-08-05T17:57:22.129Z,58.75
2022-08-05T18:00:03.333Z,59.17
2022-08-05T18:02:31.797Z,58.83
2022-08-05T18:04:58.948Z,59.47
2022-08-05T18:07:32.983Z,59.58
2022-08-05T18:10:11.411Z,59.54
2022-08-05T18:12:40.682Z,59.48
2022-08-05T18:15:08.960Z,60.09
2022-08-05T18:17:59.099Z,59.64
2022-08-05T18:20:29.354Z,59.48
2022-08-05T18:23:00.744Z,59.14
2022-08-05T18:25:39.038Z,59.06
2022-08-05T18:28:06.958Z,59.63
2022-08-05T18:30:34.543Z,60.13
2022-08-05T18:33:01.594Z,59.52
2022-08-05T18:36:00.553Z,59.37
2022-08-05T18:38:19.460Z,59.60
2022-08-05T18:41:58.149Z,59.04
2022-08-05T18:43:42.696Z,58.81
2022-08-05T18:46:15.579Z,58.94
2022-08-05T18:48:48.084Z,58.95
2022-08-05T18:52:04.098Z,58.86
2022-08-05T18:54:25.599Z,58.04
2022-08-05T18:56:52.275Z,58.51
2022-08-05T18:59:43.862Z,58.29
2022-08-05T19:02:11.356Z,58.36
2022-08-05T19:05:01.077Z,57.67
2022-08-05T19:07:46.133Z,57.94
2022-08-05T19:10:14.709Z,57.36
2022-08-05T19:12:41.607Z,57.32
2022-08-05T19:15:16.378Z,57.00
2022-08-05T19:18:09.762Z,57.20
2022-08-05T19:20:41.654Z,56.29
2022-08-05T19:24:03.350Z,56.48
2022-08-05T19:26:01.159Z,56.26
2022-08-05T19:28:30.335Z,55.72
2022-08-05T19:30:57.385Z,55.73
2022-08-05T19:33:34.024Z,55.58
2022-08-05T19:36:06.169Z,54.60
2022-08-05T19:38:36.827Z,55.04
2022-08-05T19:41:07.381Z,54.39
2022-08-05T19:44:05.805Z,54.21
2022-08-05T19:46:30.349Z,55.13
2022-08-05T19:49:03.336Z,54.78
2022-08-05T19:52:09.007Z,55.06
2022-08-05T19:54:21.731Z,55.03
2022-08-05T19:56:59.525Z,54.96
2022-08-05T19:59:54.613Z,54.60
2022-08-05T20:02:14.634Z,54.70
2022-08-05T20:04:42.864Z,54.50
2022-08-05T20:07:10.380Z,54.52
2022-08-05T20:09:54.697Z,54.32
2022-08-05T20:12:24.560Z,54.56
2022-08-05T20:14:52.937Z,54.35
2022-08-05T20:17:23.266Z,54.52
2022-08-05T20:19:50.799Z,55.04
2022-08-05T20:22:24.061Z,55.03
2022-08-05T20:24:53.864Z,55.09
2022-08-05T20:27:26.468Z,55.34
2022-08-05T20:29:57.910Z,55.31
2022-08-05T20:32:25.880Z,54.71
2022-08-05T20:34:52.681Z,55.24
2022-08-05T20:38:04.857Z,55.10
2022-08-05T20:40:07.164Z,54.96
2022-08-05T20:42:34.703Z,55.42
2022-08-05T20:45:02.879Z,55.42
2022-08-05T20:47:32.044Z,55.43
2022-08-05T20:49:59.432Z,55.20
2022-08-05T20:52:26.813Z,54.97
2022-08-05T20:54:59.223Z,55.71
2022-08-05T20:57:43.408Z,55.60
2022-08-05T21:00:34.906Z,55.75
2022-08-05T21:03:06.132Z,55.33
2022-08-05T21:05:48.199Z,55.34
2022-08-05T21:08:32.910Z,55.23
2022-08-05T21:11:15.213Z,54.52
2022-08-05T21:13:59.286Z,54.04
2022-08-05T21:16:29.497Z,53.52
2022-08-05T21:19:00.021Z,53.50
2022-08-05T21:21:26.895Z,53.06
2022-08-05T21:24:12.920Z,52.74
2022-08-05T21:26:41.411Z,52.74
2022-08-05T21:29:09.964Z,52.63
2022-08-05T21:31:41.303Z,52.50
2022-08-05T21:34:10.589Z,52.73
2022-08-05T21:36:37.968Z,52.80
2022-08-05T21:39:04.660Z,52.98
2022-08-05T21:41:34.338Z,52.34
2022-08-05T21:44:04.116Z,52.18
2022-08-05T21:46:34.646Z,52.08
2022-08-05T21:49:07.299Z,51.81
2022-08-05T21:52:22.133Z,51.82
2022-08-05T21:54:30.845Z,51.83
2022-08-05T21:57:28.411Z,51.40
2022-08-05T22:00:02.060Z,50.84
2022-08-05T22:02:31.501Z,51.39
2022-08-05T22:04:58.680Z,51.20
2022-08-05T22:07:39.283Z,51.10
2022-08-05T22:10:12.554Z,50.69
2022-08-05T22:12:40.330Z,50.59
2022-08-05T22:15:16.351Z,50.83
2022-08-05T22:17:48.512Z,50.44
2022-08-05T22:20:23.245Z,50.16
2022-08-05T22:23:16.918Z,50.28
2022-08-05T22:26:10.149Z,50.04
2022-08-05T22:28:38.571Z,50.01
2022-08-05T22:31:05.882Z,50.51
2022-08-05T22:33:55.836Z,50.15
2022-08-05T22:36:19.542Z,50.07
2022-08-05T22:38:51.221Z,50.12
2022-08-05T22:42:05.481Z,50.45
2022-08-05T22:44:07.660Z,50.47
2022-08-05T22:46:34.295Z,50.26
2022-08-05T22:49:23.123Z,50.18
2022-08-05T22:52:06.101Z,50.04
2022-08-05T22:54:37.467Z,50.34
2022-08-05T22:57:06.027Z,50.14
2022-08-05T22:59:46.086Z,49.98
2022-08-05T23:02:29.663Z,50.28
2022-08-05T23:05:01.876Z,50.45
2022-08-05T23:07:31.737Z,50.62
2022-08-05T23:10:02.071Z,50.68
2022-08-05T23:12:32.461Z,50.77
2022-08-05T23:15:03.060Z,50.89
2022-08-05T23:17:34.178Z,50.92
2022-08-05T23:20:10.100Z,51.27
2022-08-05T23:22:43.900Z,51.24
2022-08-05T23:25:17.000Z,51.22
2022-08-05T23:28:00.443Z,51.81
2022-08-05T23:30:29.089Z,51.58
2022-08-05T23:32:58.044Z,51.45
2022-08-05T23:35:34.076Z,51.17
2022-08-05T23:38:01.050Z,51.75
2022-08-05T23:40:27.813Z,51.75
2022-08-05T23:42:54.471Z,51.95
2022-08-05T23:45:21.214Z,51.58
2022-08-05T23:47:52.056Z,51.53
2022-08-05T23:50:20.755Z,51.80
2022-08-05T23:52:49.765Z,51.78
2022-08-05T23:55:17.963Z,52.15
2022-08-05T23:57:44.570Z,51.86
